Time,TemperatureF,DewpointF,PressureIn,WindDirection,WindDirectionDegrees,WindSpeedMPH,WindSpeedGustMPH,Humidity,HourlyPrecipIn,Conditions,Clouds,dailyrainin,SoftwareType,DateUTC
2013-01-24 00:13:00,32.8,29.0,32.50,SSW,197,20.0,35.0,86,0.00,,,0.00,weatherlink.com 1.10,2013-01-24 07:13:00,
2013-01-24 00:29:00,32.2,29.0,32.50,SSW,200,30.0,33.0,89,0.00,,,0.00,weatherlink.com 1.10,2013-01-24 07:29:00,
2013-01-24 00:43:00,32.4,30.0,32.50,SSW,195,20.0,33.0,90,0.00,,,0.00,weatherlink.com 1.10,2013-01-24 07:43:00,
2013-01-24 00:58:00,32.1,30.0,32.50,SSW,198,24.0,33.0,90,0.00,,,0.00,weatherlink.com 1.10,2013-01-24 07:58:00,
2013-01-24 01:14:00,31.8,30.0,32.50,South,188,26.0,33.0,91,0.00,,,0.00,weatherlink.com 1.10,2013-01-24 08:14:00,
2013-01-24 01:29:00,31.7,30.0,32.50,South,191,27.0,34.0,92,0.00,,,0.00,weatherlink.com 1.10,2013-01-24 08:29:00,
2013-01-24 01:44:00,31.7,30.0,32.50,South,190,28.0,33.0,93,0.00,,,0.00,weatherlink.com 1.10,2013-01-24 08:44:00,
2013-01-24 01:59:00,31.9,30.0,32.50,SSW,196,24.0,30.0,94,0.00,,,0.00,weatherlink.com 1.10,2013-01-24 08:59:00,
2013-01-24 02:14:00,32.4,31.0,32.50,South,183,24.0,33.0,94,0.00,,,0.00,weatherlink.com 1.10,2013-01-24 09:14:00,
2013-01-24 02:29:00,32.2,30.0,32.50,SSW,198,20.0,31.0,93,0.00,,,0.00,weatherlink.com 1.10,2013-01-24 09:29:00,
2013-01-24 02:44:00,32.1,30.0,32.50,South,190,24.0,30.0,93,0.00,,,0.00,weatherlink.com 1.10,2013-01-24 09:44:00,
2013-01-24 02:59:00,31.8,30.0,32.50,SSW,196,15.0,24.0,94,0.00,,,0.00,weatherlink.com 1.10,2013-01-24 09:59:00,
2013-01-24 03:14:00,31.4,30.0,32.50,SSW,210,15.0,24.0,94,0.00,,,0.00,weatherlink.com 1.10,2013-01-24 10:14:00,
2013-01-24 03:29:00,31.7,31.0,32.50,South,186,20.0,26.0,95,0.00,,,0.00,weatherlink.com 1.10,2013-01-24 10:29:00,
2013-01-24 03:44:00,31.8,31.0,32.50,SSW,199,20.0,26.0,95,0.00,,,0.00,weatherlink.com 1.10,2013-01-24 10:44:00,
2013-01-24 03:59:00,31.8,31.0,32.50,SSW,203,15.0,25.0,95,0.00,,,0.00,weatherlink.com 1.10,2013-01-24 10:59:00,
2013-01-24 04:14:00,31.7,31.0,32.50,WSW,238,13.0,22.0,95,0.00,,,0.00,weatherlink.com 1.10,2013-01-24 11:14:00,
2013-01-24 04:29:00,31.7,31.0,32.50,SSW,199,20.0,23.0,95,0.00,,,0.00,weatherlink.com 1.10,2013-01-24 11:29:00,
2013-01-24 04:44:00,31.7,31.0,32.50,SSW,208,16.0,23.0,95,0.00,,,0.00,weatherlink.com 1.10,2013-01-24 11:44:00,
2013-01-24 04:59:00,31.7,31.0,32.50,South,176,19.0,20.0,95,0.00,,,0.00,weatherlink.com 1.10,2013-01-24 11:59:00,
2013-01-24 05:14:00,31.7,31.0,32.50,SSW,208,12.0,19.0,95,0.00,,,0.00,weatherlink.com 1.10,2013-01-24 12:14:00,
2013-01-24 05:29:00,31.6,30.0,32.50,SW,228,10.0,17.0,95,0.00,,,0.00,weatherlink.com 1.10,2013-01-24 12:29:00,
2013-01-24 05:44:00,31.3,30.0,32.50,SSW,193,5.0,19.0,95,0.00,,,0.00,weatherlink.com 1.10,2013-01-24 12:44:00,
2013-01-24 05:59:00,31.1,30.0,32.50,East,96,2.0,7.0,95,0.00,,,0.00,weatherlink.com 1.10,2013-01-24 12:59:00,
2013-01-24 06:14:00,30.6,29.0,32.50,NW,312,3.0,6.0,95,0.00,,,0.00,weatherlink.com 1.10,2013-01-24 13:14:00,
2013-01-24 06:29:00,29.7,29.0,32.50,NNW,334,13.0,14.0,95,0.00,,,0.00,weatherlink.com 1.10,2013-01-24 13:29:00,
2013-01-24 06:44:00,29.5,28.0,32.50,NNW,331,10.0,14.0,94,0.00,,,0.00,weatherlink.com 1.10,2013-01-24 13:44:00,
2013-01-24 06:59:00,29.3,28.0,32.50,NW,322,11.0,16.0,94,0.00,,,0.00,weatherlink.com 1.10,2013-01-24 13:59:00,
2013-01-24 07:14:00,29.5,28.0,32.50,WNW,296,9.0,16.0,92,0.00,,,0.00,weatherlink.com 1.10,2013-01-24 14:14:00,
2013-01-24 07:29:00,29.6,27.0,32.50,WNW,290,8.0,17.0,89,0.00,,,0.00,weatherlink.com 1.10,2013-01-24 14:29:00,
2013-01-24 07:44:00,29.4,27.0,32.50,WNW,288,11.0,14.0,90,0.00,,,0.00,weatherlink.com 1.10,2013-01-24 14:44:00,
2013-01-24 07:59:00,29.7,26.0,32.50,West,281,13.0,19.0,87,0.00,,,0.00,weatherlink.com 1.10,2013-01-24 14:59:00,
2013-01-24 08:14:00,29.6,26.0,32.50,West,271,8.0,20.0,86,0.00,,,0.00,weatherlink.com 1.10,2013-01-24 15:14:00,
2013-01-24 08:29:00,29.4,26.0,32.50,WNW,299,7.0,18.0,86,0.00,,,0.00,weatherlink.com 1.10,2013-01-24 15:29:00,
2013-01-24 08:44:00,29.3,25.0,32.50,WNW,293,12.0,19.0,85,0.00,,,0.00,weatherlink.com 1.10,2013-01-24 15:44:00,
2013-01-24 08:59:00,29.0,25.0,32.50,NW,315,6.0,16.0,86,0.00,,,0.00,weatherlink.com 1.10,2013-01-24 15:59:00,
2013-01-24 09:14:00,28.8,25.0,32.50,WNW,286,10.0,15.0,87,0.00,,,0.00,weatherlink.com 1.10,2013-01-24 16:14:00,
2013-01-24 09:29:00,28.8,26.0,32.50,WNW,284,11.0,12.0,88,0.00,,,0.00,weatherlink.com 1.10,2013-01-24 16:29:00,
2013-01-24 09:44:00,29.1,26.0,32.50,WNW,292,7.0,12.0,87,0.00,,,0.00,weatherlink.com 1.10,2013-01-24 16:44:00,
2013-01-24 09:59:00,29.0,26.0,32.50,WNW,285,5.0,15.0,88,0.00,,,0.00,weatherlink.com 1.10,2013-01-24 16:59:00,
2013-01-24 10:14:00,28.9,26.0,32.50,NNW,328,4.0,8.0,89,0.00,,,0.00,weatherlink.com 1.10,2013-01-24 17:14:00,
2013-01-24 10:29:00,28.7,26.0,32.50,NNW,329,10.0,13.0,88,0.00,,,0.00,weatherlink.com 1.10,2013-01-24 17:29:00,
2013-01-24 10:44:00,29.5,26.0,32.50,WNW,290,12.0,13.0,86,0.00,,,0.00,weatherlink.com 1.10,2013-01-24 17:44:00,
2013-01-24 10:59:00,29.6,25.0,32.50,WNW,301,6.0,14.0,84,0.00,,,0.00,weatherlink.com 1.10,2013-01-24 17:59:00,
2013-01-24 11:14:00,29.6,25.0,32.50,WNW,300,7.0,13.0,83,0.00,,,0.00,weatherlink.com 1.10,2013-01-24 18:14:00,
2013-01-24 11:29:00,28.9,24.0,32.50,NW,305,9.0,16.0,83,0.00,,,0.00,weatherlink.com 1.10,2013-01-24 18:29:00,
2013-01-24 11:44:00,29.5,23.0,32.50,West,277,5.0,12.0,78,0.00,,,0.00,weatherlink.com 1.10,2013-01-24 18:44:00,
2013-01-24 11:59:00,30.3,24.0,32.50,WNW,286,9.0,12.0,77,0.00,,,0.00,weatherlink.com 1.10,2013-01-24 18:59:00,
2013-01-24 12:14:00,30.2,24.0,32.50,WNW,288,13.0,13.0,76,0.00,,,0.00,weatherlink.com 1.10,2013-01-24 19:14:00,
2013-01-24 12:29:00,30.4,23.0,32.50,WNW,286,10.0,14.0,74,0.00,,,0.00,weatherlink.com 1.10,2013-01-24 19:29:00,
2013-01-24 12:44:00,30.7,23.0,32.50,NW,310,5.0,13.0,73,0.00,,,0.00,weatherlink.com 1.10,2013-01-24 19:44:00,
2013-01-24 12:59:00,31.2,23.0,32.50,WNW,300,11.0,17.0,71,0.00,,,0.00,weatherlink.com 1.10,2013-01-24 19:59:00,
2013-01-24 13:14:00,31.3,23.0,32.50,NW,320,4.0,11.0,70,0.00,,,0.00,weatherlink.com 1.10,2013-01-24 20:14:00,
2013-01-24 13:29:00,31.3,23.0,32.50,WNW,288,6.0,10.0,72,0.00,,,0.00,weatherlink.com 1.10,2013-01-24 20:29:00,
2013-01-24 13:44:00,32.0,23.0,32.50,NNW,342,3.0,10.0,70,0.00,,,0.00,weatherlink.com 1.10,2013-01-24 20:44:00,
2013-01-24 13:59:00,32.5,23.0,32.50,NW,309,8.0,12.0,67,0.00,,,0.00,weatherlink.com 1.10,2013-01-24 20:59:00,
2013-01-24 14:14:00,31.6,22.0,32.50,WNW,296,9.0,13.0,68,0.00,,,0.00,weatherlink.com 1.10,2013-01-24 21:14:00,
2013-01-24 14:29:00,31.5,22.0,32.50,WNW,294,9.0,15.0,69,0.00,,,0.00,weatherlink.com 1.10,2013-01-24 21:29:00,
2013-01-24 14:44:00,31.5,23.0,32.50,NW,313,6.0,14.0,70,0.00,,,0.00,weatherlink.com 1.10,2013-01-24 21:44:00,
2013-01-24 14:59:00,31.6,23.0,32.50,North,351,5.0,13.0,70,0.00,,,0.00,weatherlink.com 1.10,2013-01-24 21:59:00,
2013-01-24 15:15:00,31.2,22.0,32.50,NNW,327,6.0,16.0,70,0.00,,,0.00,weatherlink.com 1.10,2013-01-24 22:15:00,
2013-01-24 15:30:00,31.4,23.0,32.50,NW,321,10.0,10.0,70,0.00,,,0.00,weatherlink.com 1.10,2013-01-24 22:30:00,
2013-01-24 15:45:00,31.1,23.0,32.50,NNW,331,7.0,10.0,71,0.00,,,0.00,weatherlink.com 1.10,2013-01-24 22:45:00,
2013-01-24 16:00:00,31.5,23.0,32.50,NW,325,7.0,11.0,71,0.00,,,0.00,weatherlink.com 1.10,2013-01-24 23:00:00,
2013-01-24 16:15:00,31.2,23.0,32.50,NW,304,6.0,12.0,73,0.01,,,0.01,weatherlink.com 1.10,2013-01-24 23:15:00,
2013-01-24 16:30:00,30.8,23.0,32.50,WNW,296,8.0,12.0,74,0.01,,,0.01,weatherlink.com 1.10,2013-01-24 23:30:00,
2013-01-24 16:45:00,30.6,24.0,32.50,WNW,295,7.0,10.0,75,0.01,,,0.01,weatherlink.com 1.10,2013-01-24 23:45:00,
2013-01-24 17:00:00,30.1,23.0,32.50,NW,315,4.0,9.0,76,0.01,,,0.01,weatherlink.com 1.10,2013-01-25 00:00:00,
2013-01-24 17:15:00,29.2,23.0,32.50,NW,310,4.0,8.0,78,0.00,,,0.01,weatherlink.com 1.10,2013-01-25 00:15:00,
2013-01-24 17:30:00,28.9,23.0,32.50,NW,309,4.0,7.0,80,0.00,,,0.01,weatherlink.com 1.10,2013-01-25 00:30:00,
2013-01-24 17:45:00,28.8,23.0,32.50,NW,306,0.0,6.0,79,0.00,,,0.01,weatherlink.com 1.10,2013-01-25 00:45:00,
2013-01-24 18:00:00,29.0,23.0,32.50,NW,306,1.0,4.0,77,0.00,,,0.01,weatherlink.com 1.10,2013-01-25 01:00:00,
2013-01-24 18:15:00,28.9,23.0,32.50,NW,308,1.0,4.0,77,0.00,,,0.01,weatherlink.com 1.10,2013-01-25 01:15:00,
2013-01-24 18:30:00,29.0,23.0,32.50,NW,310,4.0,6.0,77,0.00,,,0.01,weatherlink.com 1.10,2013-01-25 01:30:00,
2013-01-24 18:45:00,29.0,23.0,32.50,NW,307,2.0,5.0,79,0.00,,,0.01,weatherlink.com 1.10,2013-01-25 01:45:00,
2013-01-24 19:00:00,28.8,23.0,32.50,NW,310,7.0,8.0,80,0.00,,,0.01,weatherlink.com 1.10,2013-01-25 02:00:00,
2013-01-24 19:15:00,29.1,23.0,32.50,NW,325,6.0,8.0,79,0.00,,,0.01,weatherlink.com 1.10,2013-01-25 02:15:00,
2013-01-24 19:30:00,28.9,23.0,32.50,NNW,339,6.0,8.0,79,0.00,,,0.01,weatherlink.com 1.10,2013-01-25 02:30:00,
2013-01-24 19:45:00,28.9,23.0,32.50,North,355,6.0,8.0,79,0.00,,,0.01,weatherlink.com 1.10,2013-01-25 02:45:00,
2013-01-24 20:00:00,28.8,23.0,32.50,North,9,2.0,6.0,79,0.00,,,0.01,weatherlink.com 1.10,2013-01-25 03:00:00,
2013-01-24 20:15:00,29.2,24.0,32.50,NNW,344,5.0,6.0,80,0.00,,,0.01,weatherlink.com 1.10,2013-01-25 03:15:00,
2013-01-24 20:30:00,28.9,23.0,32.50,North,5,7.0,9.0,80,0.00,,,0.01,weatherlink.com 1.10,2013-01-25 03:30:00,
2013-01-24 20:45:00,29.1,24.0,32.50,North,9,0.0,7.0,80,0.00,,,0.01,weatherlink.com 1.10,2013-01-25 03:45:00,
2013-01-24 21:00:00,29.1,24.0,32.50,North,360,0.0,4.0,81,0.00,,,0.01,weatherlink.com 1.10,2013-01-25 04:00:00,
2013-01-24 21:15:00,29.9,24.0,32.50,NE,53,0.0,4.0,77,0.00,,,0.01,weatherlink.com 1.10,2013-01-25 04:15:00,
2013-01-24 21:30:00,29.6,24.0,32.50,NE,53,1.0,3.0,78,0.00,,,0.01,weatherlink.com 1.10,2013-01-25 04:30:00,
2013-01-24 21:45:00,-999.0,-99.9,32.50,North,-999,-999.0,-999.0,-999,0.00,,,0.01,weatherlink.com 1.10,2013-01-25 04:45:00,
2013-01-24 22:15:00,-999.0,-99.9,32.50,North,-999,-999.0,-999.0,-999,0.00,,,0.01,weatherlink.com 1.10,2013-01-25 05:15:00,
2013-01-24 22:30:00,-999.0,-99.9,32.50,North,-999,-999.0,-999.0,-999,0.00,,,0.01,weatherlink.com 1.10,2013-01-25 05:30:00,
2013-01-24 22:45:00,-999.0,-99.9,32.50,North,-999,-999.0,-999.0,-999,0.00,,,0.01,weatherlink.com 1.10,2013-01-25 05:45:00,
2013-01-24 23:00:00,-999.0,-99.9,32.50,North,-999,-999.0,-999.0,-999,0.00,,,0.01,weatherlink.com 1.10,2013-01-25 06:00:00,
2013-01-24 23:15:00,-999.0,-99.9,32.50,North,-999,-999.0,-999.0,-999,0.00,,,0.01,weatherlink.com 1.10,2013-01-25 06:15:00,
2013-01-24 23:30:00,-999.0,-99.9,32.50,North,-999,-999.0,-999.0,-999,0.00,,,0.01,weatherlink.com 1.10,2013-01-25 06:30:00,
2013-01-24 23:45:00,-999.0,-99.9,32.50,North,-999,-999.0,-999.0,-999,0.00,,,0.01,weatherlink.com 1.10,2013-01-25 06:45:00,